createdAt,value
2023-04-24T10:35:45.265Z,50.87
2023-04-24T10:38:31.683Z,51.36
2023-04-24T10:41:23.871Z,52.64
2023-04-24T10:44:11.272Z,53.14
2023-04-24T10:46:57.237Z,53.10
2023-04-24T10:49:43.683Z,52.76
2023-04-24T10:52:45.882Z,52.15
2023-04-24T10:55:44.396Z,51.70
2023-04-24T10:58:55.051Z,51.24
2023-04-24T11:01:40.297Z,50.83
2023-04-24T11:04:33.455Z,49.59
2023-04-24T11:07:18.522Z,49.24
2023-04-24T11:10:04.564Z,49.40
2023-04-24T11:12:52.006Z,49.49
2023-04-24T11:15:37.880Z,48.84
2023-04-24T11:18:23.875Z,48.29
2023-04-24T11:21:18.540Z,46.96
2023-04-24T11:24:33.032Z,47.41
2023-04-24T11:27:21.248Z,48.53
2023-04-24T11:30:07.532Z,48.13
2023-04-24T11:32:53.260Z,49.22
2023-04-24T11:35:41.709Z,49.61
2023-04-24T11:38:27.000Z,52.19
2023-04-24T11:41:12.609Z,54.05
2023-04-24T11:43:58.403Z,54.53
2023-04-24T11:46:43.917Z,53.20
2023-04-24T11:49:29.362Z,53.54
2023-04-24T11:52:16.914Z,53.72
2023-04-24T11:55:02.615Z,54.74
2023-04-24T11:57:54.760Z,54.40
2023-04-24T12:00:40.579Z,55.17
2023-04-24T12:03:26.256Z,53.80
2023-04-24T12:06:12.801Z,53.07
2023-04-24T12:09:04.714Z,52.83
2023-04-24T12:12:00.811Z,54.28
2023-04-24T12:14:50.945Z,55.04
2023-04-24T12:17:37.723Z,55.45
2023-04-24T12:20:31.874Z,56.55
2023-04-24T12:23:18.597Z,55.20
2023-04-24T12:26:07.192Z,54.19
2023-04-24T12:28:52.309Z,53.44
2023-04-24T12:31:37.814Z,52.73
2023-04-24T12:34:25.779Z,50.33
2023-04-24T12:37:12.364Z,48.47
2023-04-24T12:40:08.265Z,46.09
2023-04-24T12:42:54.395Z,41.24
2023-04-24T12:45:40.863Z,40.04
2023-04-24T12:48:29.789Z,38.87
2023-04-24T12:51:15.035Z,37.09
2023-04-24T12:54:00.163Z,36.91
2023-04-24T12:56:45.439Z,36.93
2023-04-24T12:59:30.875Z,36.51
2023-04-24T13:02:19.605Z,36.75
2023-04-24T13:05:05.255Z,35.37
2023-04-24T13:07:51.035Z,35.83
2023-04-24T13:10:36.403Z,36.44
2023-04-24T13:13:21.615Z,35.84
2023-04-24T13:16:07.053Z,36.06
2023-04-24T13:18:52.179Z,35.62
2023-04-24T13:21:37.243Z,34.93
2023-04-24T13:24:26.950Z,35.38
2023-04-24T13:27:12.252Z,35.66
2023-04-24T13:29:57.309Z,35.28
2023-04-24T13:32:42.952Z,34.92
2023-04-24T13:35:28.254Z,35.62
2023-04-24T13:38:13.399Z,35.98
2023-04-24T13:40:58.863Z,36.14
2023-04-24T13:43:44.609Z,35.60
2023-04-24T13:46:30.713Z,35.06
2023-04-24T13:49:16.733Z,34.28
2023-04-24T13:52:03.150Z,33.93
2023-04-24T13:54:48.994Z,33.85
2023-04-24T13:57:34.309Z,34.04
2023-04-24T14:00:20.129Z,33.75
2023-04-24T14:03:05.298Z,34.89
2023-04-24T14:05:50.911Z,35.11
2023-04-24T14:08:36.051Z,34.73
2023-04-24T14:11:21.628Z,34.67
2023-04-24T14:14:06.782Z,34.65
2023-04-24T14:16:51.949Z,34.70
2023-04-24T14:19:37.202Z,34.53
2023-04-24T14:22:22.692Z,34.73
2023-04-24T14:25:08.656Z,34.72
2023-04-24T14:27:53.851Z,34.29
2023-04-24T14:30:41.532Z,34.69
2023-04-24T14:33:26.978Z,34.40
2023-04-24T14:36:12.037Z,32.37
2023-04-24T14:38:57.304Z,33.36
2023-04-24T14:41:42.524Z,33.31
2023-04-24T14:44:28.173Z,34.77
2023-04-24T14:47:13.527Z,35.25
2023-04-24T14:49:59.355Z,35.43
2023-04-24T14:52:44.730Z,35.87
2023-04-24T14:55:30.092Z,35.64
2023-04-24T14:58:15.442Z,35.50
2023-04-24T15:01:00.941Z,35.32
2023-04-24T15:03:47.031Z,35.41
2023-04-24T15:06:32.840Z,35.93
2023-04-24T15:09:18.074Z,35.53
2023-04-24T15:12:03.613Z,35.24
2023-04-24T15:14:48.945Z,34.94
2023-04-24T15:17:34.607Z,35.33
2023-04-24T15:20:20.149Z,36.14
2023-04-24T15:23:14.149Z,36.02
2023-04-24T15:25:59.545Z,35.63
2023-04-24T15:28:45.111Z,35.78
2023-04-24T15:31:30.337Z,35.71
2023-04-24T15:34:15.668Z,36.17
2023-04-24T15:37:01.511Z,37.05
2023-04-24T15:39:47.176Z,37.78
2023-04-24T15:42:32.564Z,37.59
2023-04-24T15:45:17.837Z,38.07
2023-04-24T15:48:03.082Z,37.46
2023-04-24T15:50:48.709Z,37.86
2023-04-24T15:53:34.231Z,37.79
2023-04-24T15:56:20.097Z,37.77
2023-04-24T15:59:06.527Z,38.61
2023-04-24T16:01:52.139Z,38.40
2023-04-24T16:04:37.854Z,38.59
2023-04-24T16:07:23.515Z,38.64
2023-04-24T16:10:09.484Z,38.93
2023-04-24T16:12:54.984Z,38.92
2023-04-24T16:15:40.258Z,38.97
2023-04-24T16:18:25.382Z,38.93
2023-04-24T16:21:10.795Z,38.47
2023-04-24T16:23:55.979Z,37.44
2023-04-24T16:26:41.328Z,37.88
2023-04-24T16:29:26.669Z,38.18
2023-04-24T16:32:11.886Z,38.86
2023-04-24T16:34:57.142Z,39.15
2023-04-24T16:37:42.556Z,39.62
2023-04-24T16:40:27.648Z,40.17
2023-04-24T16:43:13.023Z,41.84
2023-04-24T16:46:00.576Z,44.61
2023-04-24T16:48:46.265Z,44.92
2023-04-24T16:51:33.023Z,46.01
2023-04-24T16:54:18.206Z,46.37
2023-04-24T16:57:04.668Z,47.10
2023-04-24T16:59:49.860Z,47.48
2023-04-24T17:02:35.006Z,48.06
2023-04-24T17:05:23.353Z,48.88
2023-04-24T17:08:09.077Z,49.84
2023-04-24T17:10:54.419Z,50.60
2023-04-24T17:13:39.907Z,51.32
2023-04-24T17:16:25.837Z,52.33
2023-04-24T17:19:11.545Z,53.23
2023-04-24T17:21:57.975Z,53.58
2023-04-24T17:24:43.431Z,54.29
2023-04-24T17:27:28.789Z,54.28
2023-04-24T17:30:14.753Z,54.01
2023-04-24T17:33:00.030Z,53.56
2023-04-24T17:35:45.458Z,53.70
2023-04-24T17:38:30.879Z,54.42
2023-04-24T17:41:16.760Z,53.73
2023-04-24T17:44:02.303Z,54.82
2023-04-24T17:46:47.784Z,55.16
2023-04-24T17:49:33.013Z,55.70
2023-04-24T17:52:18.234Z,56.06
2023-04-24T17:55:03.847Z,56.23
2023-04-24T17:57:49.389Z,56.43
2023-04-24T18:00:35.418Z,57.13
2023-04-24T18:03:20.839Z,57.22
2023-04-24T18:06:06.253Z,56.95
2023-04-24T18:08:51.562Z,56.22
2023-04-24T18:11:37.697Z,55.97
2023-04-24T18:14:23.349Z,55.22
2023-04-24T18:17:09.708Z,55.39
2023-04-24T18:19:55.292Z,55.26
2023-04-24T18:22:41.537Z,55.88
2023-04-24T18:25:27.320Z,56.52
2023-04-24T18:28:12.713Z,56.59
2023-04-24T18:30:58.482Z,56.52
2023-04-24T18:33:43.788Z,57.23
2023-04-24T18:36:29.027Z,57.80
2023-04-24T18:39:14.412Z,57.47
2023-04-24T18:42:01.748Z,58.01
2023-04-24T18:44:46.905Z,58.22
2023-04-24T18:47:32.286Z,58.46
2023-04-24T18:50:19.207Z,58.01
2023-04-24T18:53:04.456Z,58.56
2023-04-24T18:55:49.955Z,58.60
2023-04-24T18:58:35.268Z,59.47
2023-04-24T19:01:21.983Z,59.09
2023-04-24T19:04:07.318Z,59.54
2023-04-24T19:06:52.554Z,59.74
2023-04-24T19:09:37.825Z,60.02
2023-04-24T19:12:23.314Z,60.08
2023-04-24T19:15:12.737Z,60.25
2023-04-24T19:17:57.726Z,60.08
2023-04-24T19:20:43.977Z,59.91
2023-04-24T19:23:29.602Z,60.35
2023-04-24T19:26:14.615Z,60.40
2023-04-24T19:29:00.041Z,60.72
2023-04-24T19:31:45.503Z,61.12
2023-04-24T19:34:31.910Z,61.27
2023-04-24T19:37:17.344Z,61.42
2023-04-24T19:40:03.530Z,61.55
2023-04-24T19:42:49.558Z,61.44
2023-04-24T19:45:34.604Z,62.00
2023-04-24T19:48:19.970Z,61.53
2023-04-24T19:51:05.465Z,61.30
2023-04-24T19:53:53.963Z,61.67
2023-04-24T19:56:39.230Z,61.69
2023-04-24T19:59:24.742Z,61.03
2023-04-24T20:02:11.539Z,61.48
2023-04-24T20:04:57.069Z,62.33
2023-04-24T20:07:42.350Z,62.31
2023-04-24T20:10:27.723Z,62.15
2023-04-24T20:13:13.027Z,62.41
2023-04-24T20:15:58.312Z,62.52
2023-04-24T20:18:44.591Z,63.01
2023-04-24T20:21:29.661Z,63.34
2023-04-24T20:24:16.126Z,63.34
2023-04-24T20:27:04.447Z,63.64
2023-04-24T20:29:49.819Z,63.56
2023-04-24T20:32:35.524Z,64.62
2023-04-24T20:35:20.868Z,64.53
2023-04-24T20:38:06.671Z,63.85
2023-04-24T20:43:40.330Z,64.27
2023-04-24T20:46:25.602Z,64.30
2023-04-24T20:49:11.017Z,64.75
2023-04-24T20:51:56.378Z,64.71
2023-04-24T20:54:41.857Z,65.03
2023-04-24T20:57:27.417Z,65.52
2023-04-24T21:00:13.610Z,65.73
2023-04-24T21:02:58.897Z,65.62
2023-04-24T21:05:44.310Z,65.96
2023-04-24T21:08:29.764Z,66.35
2023-04-24T21:11:15.205Z,66.37
2023-04-24T21:14:00.704Z,66.27
2023-04-24T21:16:45.998Z,66.77
2023-04-24T21:19:31.303Z,67.16
2023-04-24T21:22:16.606Z,67.15
2023-04-24T21:25:05.555Z,67.47
2023-04-24T21:27:50.962Z,67.79
2023-04-24T21:30:37.437Z,68.16
2023-04-24T21:33:22.867Z,68.94
2023-04-24T21:36:08.080Z,68.74
2023-04-24T21:38:53.219Z,68.52
2023-04-24T21:41:38.788Z,68.76
2023-04-24T21:44:24.667Z,68.93
2023-04-24T21:47:10.161Z,69.74
2023-04-24T21:49:55.508Z,69.84
2023-04-24T21:52:40.783Z,69.64
2023-04-24T21:55:26.964Z,70.03
2023-04-24T21:58:12.843Z,70.18
2023-04-24T22:00:58.142Z,70.41
2023-04-24T22:03:43.334Z,71.00
2023-04-24T22:06:28.554Z,71.13
2023-04-24T22:09:13.655Z,71.10
2023-04-24T22:11:59.196Z,70.60
2023-04-24T22:14:44.248Z,70.83
2023-04-24T22:17:29.630Z,70.98
2023-04-24T22:20:17.077Z,70.25
2023-04-24T22:23:02.190Z,71.00
2023-04-24T22:25:47.609Z,71.33
2023-04-24T22:28:33.007Z,71.35
2023-04-24T22:31:18.542Z,71.52
2023-04-24T22:34:03.818Z,71.18
2023-04-24T22:36:48.912Z,72.14
2023-04-24T22:39:34.157Z,71.79
2023-04-24T22:42:19.560Z,72.18
2023-04-24T22:45:05.798Z,72.34
2023-04-24T22:47:51.529Z,72.21
2023-04-24T22:50:37.036Z,72.87
2023-04-24T22:53:23.077Z,73.02
2023-04-24T22:56:08.436Z,71.98
2023-04-24T22:58:53.917Z,71.73
2023-04-24T23:01:38.895Z,71.67
2023-04-24T23:04:24.697Z,70.86
2023-04-24T23:07:10.345Z,70.74
2023-04-24T23:09:55.781Z,70.09
2023-04-24T23:12:41.050Z,69.56
2023-04-24T23:15:26.056Z,68.78
2023-04-24T23:18:12.350Z,68.81
2023-04-24T23:20:58.282Z,68.70
2023-04-24T23:23:43.498Z,68.67
2023-04-24T23:26:28.816Z,69.24
2023-04-24T23:29:13.905Z,68.89
2023-04-24T23:32:01.149Z,69.68
2023-04-24T23:34:46.170Z,69.52
2023-04-24T23:37:31.533Z,69.30
2023-04-24T23:40:17.063Z,69.37
2023-04-24T23:43:07.450Z,69.41
2023-04-24T23:45:53.345Z,68.78
2023-04-24T23:48:38.440Z,69.51
2023-04-24T23:51:23.863Z,69.56
2023-04-24T23:54:09.378Z,69.93
2023-04-24T23:56:54.693Z,69.28
2023-04-24T23:59:40.007Z,68.73
